Time;durP1;ratioP1;P1;durP2;ratioP2;P2;SDS_P1;SDS_P2;PMS_P1;PMS_P2;Temp;Humidity;BMP_temperature;BMP_pressure;BME280_temperature;BME280_humidity;BME280_pressure;Samples;Min_cycle;Max_cycle;Signal;HPM_P1;HPM_P2
2023/07/17 00:00:10;;;;;;;9.50;3.58;;;;;;;20.78;51.80;99732.38;5015552;28;20046;-79
2023/07/17 00:02:37;;;;;;;5.60;3.85;;;;;;;20.77;51.69;99728.00;5019574;28;20065;-80
2023/07/17 00:05:04;;;;;;;5.47;3.38;;;;;;;20.74;51.83;99725.66;5028042;28;20071;-79
2023/07/17 00:07:30;;;;;;;6.60;3.50;;;;;;;20.74;51.84;99731.00;5012961;28;20050;-79
2023/07/17 00:09:59;;;;;;;5.45;3.40;;;;;;;20.72;51.74;99735.66;5012347;28;20053;-79
2023/07/17 00:12:26;;;;;;;5.93;3.25;;;;;;;20.70;51.89;99733.13;5020056;28;20420;-79
2023/07/17 00:14:52;;;;;;;5.53;3.55;;;;;;;20.70;51.86;99736.66;5031890;28;20767;-79
2023/07/17 00:17:19;;;;;;;5.97;3.38;;;;;;;20.70;51.78;99738.47;5031764;28;20041;-80
2023/07/17 00:19:59;;;;;;;7.70;3.47;;;;;;;20.67;51.90;99730.78;5031665;28;20057;-80
2023/07/17 00:22:26;;;;;;;7.72;3.50;;;;;;;20.72;51.76;99732.97;5026404;28;20054;-80
2023/07/17 00:24:53;;;;;;;5.45;3.25;;;;;;;20.72;52.02;99727.63;5012260;28;20128;-79
2023/07/17 00:27:21;;;;;;;10.25;3.20;;;;;;;20.73;52.12;99726.63;5011873;28;20075;-79
2023/07/17 00:29:49;;;;;;;5.85;3.78;;;;;;;;;;5012194;28;20050;-79
2023/07/17 00:32:16;;;;;;;4.88;3.50;;;;;;;20.73;51.87;99716.78;5012635;28;20085;-79
2023/07/17 00:34:42;;;;;;;6.07;3.55;;;;;;;20.75;51.82;99722.78;5030587;28;20049;-80
2023/07/17 00:37:09;;;;;;;5.22;3.20;;;;;;;20.75;51.95;99719.28;5031404;28;20045;-80
2023/07/17 00:39:35;;;;;;;5.25;3.35;;;;;;;20.75;51.51;99720.13;5031489;28;20050;-80
2023/07/17 00:42:03;;;;;;;6.65;3.30;;;;;;;20.75;51.68;99725.47;5031339;28;20072;-79
2023/07/17 00:44:29;;;;;;;6.75;3.30;;;;;;;20.75;51.61;99730.00;5013873;28;20054;-80
2023/07/17 00:46:56;;;;;;;5.55;3.47;;;;;;;20.73;51.51;99716.78;5011225;28;20496;-79
2023/07/17 00:49:25;;;;;;;6.68;3.28;;;;;;;20.72;51.32;99722.28;5011647;28;20062;-79
2023/07/17 00:51:55;;;;;;;6.95;2.70;;;;;;;20.72;51.72;99728.47;5011318;28;20595;-79
2023/07/17 00:54:22;;;;;;;5.63;3.42;;;;;;;20.73;51.71;99748.00;5023586;28;20057;-80
2023/07/17 00:56:48;;;;;;;4.95;3.50;;;;;;;20.74;51.61;99747.03;5030838;28;20051;-79
2023/07/17 00:59:15;;;;;;;4.72;3.00;;;;;;;;;;5028878;28;20060;-79
2023/07/17 01:01:42;;;;;;;4.65;3.10;;;;;;;;;;5003678;28;20505;-79
2023/07/17 01:04:08;;;;;;;4.90;3.70;;;;;;;20.73;51.42;99758.72;5011120;28;20393;-80
2023/07/17 01:06:38;;;;;;;4.97;2.50;;;;;;;20.70;51.29;99751.84;5011005;28;20053;-79
2023/07/17 01:09:06;;;;;;;6.55;3.22;;;;;;;20.68;51.25;99760.00;5011108;28;20104;-79
2023/07/17 01:11:33;;;;;;;6.78;3.33;;;;;;;20.66;52.06;99754.00;5027655;28;20056;-79
2023/07/17 01:14:00;;;;;;;7.03;3.10;;;;;;;20.64;52.05;99764.00;5030645;28;20049;-79
2023/07/17 01:16:26;;;;;;;4.47;2.90;;;;;;;20.62;51.93;99755.28;5030554;28;20092;-79
2023/07/17 01:18:53;;;;;;;7.88;3.30;;;;;;;20.61;51.86;99752.78;5030534;28;20524;-79
2023/07/17 01:21:26;;;;;;;5.32;3.17;;;;;;;20.58;52.18;99743.22;4997328;28;20049;-80
2023/07/17 01:23:54;;;;;;;6.40;3.50;;;;;;;20.56;51.87;99748.72;5012016;28;20424;-79
2023/07/17 01:26:20;;;;;;;5.80;3.40;;;;;;;20.55;51.95;99739.03;5028119;28;20045;-79
2023/07/17 01:28:47;;;;;;;7.00;3.72;;;;;;;20.52;52.06;99750.00;5030552;28;20100;-79
2023/07/17 01:31:13;;;;;;;8.65;3.60;;;;;;;20.51;52.25;99755.50;5018402;28;20412;-79
2023/07/17 01:33:40;;;;;;;7.30;3.40;;;;;;;20.49;52.37;99758.38;5010875;28;20506;-79
2023/07/17 01:36:07;;;;;;;6.88;3.33;;;;;;;20.47;52.39;99748.78;5010560;28;20057;-80
2023/07/17 01:38:33;;;;;;;10.98;3.83;;;;;;;20.44;52.60;99748.13;5010792;28;20085;-79
2023/07/17 01:41:00;;;;;;;5.80;3.22;;;;;;;20.39;52.60;99749.56;5017457;28;20064;-79
2023/07/17 01:43:26;;;;;;;5.43;3.20;;;;;;;20.36;52.87;99747.19;5027633;28;20583;-80
2023/07/17 01:45:53;;;;;;;5.63;3.40;;;;;;;20.32;52.94;99754.66;5010547;28;20137;-79
2023/07/17 01:48:20;;;;;;;5.88;3.38;;;;;;;20.28;52.93;99747.94;5010557;28;20526;-79
2023/07/17 01:50:47;;;;;;;5.80;3.22;;;;;;;20.26;53.21;99749.94;4995488;28;20144;-79
2023/07/17 01:53:18;;;;;;;9.15;3.78;;;;;;;20.21;54.13;99749.53;5030218;28;20057;-79
2023/07/17 01:55:44;;;;;;;7.07;3.47;;;;;;;20.22;53.68;99748.56;5032290;28;20499;-79
2023/07/17 01:58:11;;;;;;;5.82;3.53;;;;;;;20.19;53.67;99744.38;5037113;28;20050;-80
2023/07/17 02:00:37;;;;;;;4.95;2.90;;;;;;;20.17;54.07;99746.31;5036751;28;20045;-79
2023/07/17 02:03:04;;;;;;;5.18;3.30;;;;;;;20.15;53.99;99741.13;5018069;28;20089;-79
2023/07/17 02:05:31;;;;;;;8.35;3.47;;;;;;;20.13;54.16;99743.13;4999506;28;20401;-79
2023/07/17 02:07:57;;;;;;;5.90;3.22;;;;;;;20.11;54.13;99742.41;5016554;28;20052;-79
2023/07/17 02:10:23;;;;;;;4.72;2.90;;;;;;;20.08;53.98;99750.75;5017136;28;20061;-80
2023/07/17 02:12:50;;;;;;;7.75;3.25;;;;;;;20.06;54.02;99758.06;5030151;28;20056;-79
2023/07/17 02:15:16;;;;;;;7.50;3.00;;;;;;;20.03;54.19;99761.88;5036459;28;20045;-79
2023/07/17 02:17:43;;;;;;;5.60;3.10;;;;;;;19.99;54.09;99763.16;5036431;28;20045;-80
2023/07/17 02:20:11;;;;;;;6.43;3.30;;;;;;;19.97;54.32;99766.94;5036452;28;20511;-79
2023/07/17 02:22:37;;;;;;;5.93;2.83;;;;;;;19.93;54.49;99771.75;5027060;28;20427;-79
2023/07/17 02:25:07;;;;;;;4.82;3.08;;;;;;;19.90;54.27;99770.22;5016872;28;20085;-79
2023/07/17 02:27:34;;;;;;;4.88;3.05;;;;;;;19.86;54.22;99768.84;4999237;28;20049;-80
2023/07/17 02:30:01;;;;;;;4.00;2.88;;;;;;;19.84;54.32;99767.31;5016739;28;20050;-79
2023/07/17 02:32:28;;;;;;;7.22;3.53;;;;;;;19.80;54.41;99780.09;5021181;28;20140;-79
2023/07/17 02:34:55;;;;;;;6.15;3.20;;;;;;;19.78;54.43;99774.06;5036525;28;20049;-79
2023/07/17 02:37:22;;;;;;;7.10;3.40;;;;;;;19.73;54.43;99774.50;5036805;28;20049;-79
2023/07/17 02:39:48;;;;;;;5.32;3.22;;;;;;;19.72;54.52;99775.50;5036281;28;20087;-79
2023/07/17 02:42:15;;;;;;;5.85;3.08;;;;;;;19.71;54.89;99786.31;5036003;28;20053;-80
2023/07/17 02:44:41;;;;;;;5.30;2.80;;;;;;;19.69;54.87;99783.78;5020262;28;20439;-79
2023/07/17 02:47:07;;;;;;;4.38;2.78;;;;;;;19.68;54.77;99790.13;5028737;28;20133;-79
2023/07/17 02:49:34;;;;;;;4.18;3.05;;;;;;;19.66;54.95;99792.09;5016465;28;20050;-80
2023/07/17 02:52:07;;;;;;;5.13;3.00;;;;;;;19.64;55.55;99786.06;5091668;22;20050;-81
2023/07/17 02:54:37;;;;;;;4.07;2.78;;;;;;;19.63;54.89;99779.88;5000185;28;20104;-80
2023/07/17 02:57:05;;;;;;;7.80;3.60;;;;;;;19.61;55.10;99787.22;5000385;28;20058;-80
2023/07/17 02:59:32;;;;;;;4.68;3.00;;;;;;;19.58;55.12;99786.66;5000829;28;20045;-80
2023/07/17 03:01:59;;;;;;;6.88;3.38;;;;;;;19.55;54.95;99782.44;5000559;28;20056;-81
2023/07/17 03:04:26;;;;;;;6.50;2.53;;;;;;;19.53;55.12;99795.94;5000617;28;20057;-80
2023/07/17 03:06:53;;;;;;;5.35;2.83;;;;;;;19.50;55.21;99795.38;4999152;28;20442;-80
2023/07/17 03:09:20;;;;;;;7.13;2.80;;;;;;;19.49;55.36;99796.38;4997556;28;20112;-80
2023/07/17 03:11:47;;;;;;;5.57;3.05;;;;;;;19.45;55.38;99792.31;5014927;28;20054;-80
2023/07/17 03:14:14;;;;;;;5.47;2.90;;;;;;;19.43;55.53;99794.28;5014744;28;20050;-80
2023/07/17 03:16:41;;;;;;;7.20;2.80;;;;;;;19.40;55.58;99793.56;5013558;28;20497;-80
2023/07/17 03:19:09;;;;;;;7.93;3.50;;;;;;;19.39;56.19;99796.38;5014356;28;20141;-81
2023/07/17 03:21:36;;;;;;;5.65;3.10;;;;;;;19.38;55.70;99792.03;5014114;28;20057;-80
2023/07/17 03:24:04;;;;;;;7.15;3.00;;;;;;;19.38;55.63;99802.72;5013896;28;20306;-81
2023/07/17 03:26:31;;;;;;;5.30;2.65;;;;;;;19.37;55.76;99798.38;4996348;28;20061;-80
2023/07/17 03:28:58;;;;;;;6.32;2.60;;;;;;;19.36;56.14;99796.69;4996757;28;20141;-80
2023/07/17 03:31:24;;;;;;;4.30;2.88;;;;;;;19.36;56.25;99796.69;5014151;28;20092;-81
2023/07/17 03:33:51;;;;;;;4.25;2.72;;;;;;;19.35;56.13;99795.84;4996439;28;20081;-80
2023/07/17 03:36:18;;;;;;;5.82;2.97;;;;;;;19.35;56.28;99795.00;5014037;28;20404;-81
2023/07/17 03:38:45;;;;;;;4.82;3.08;;;;;;;19.35;56.22;99795.84;5013793;28;20053;-80
2023/07/17 03:41:11;;;;;;;4.97;2.80;;;;;;;19.35;56.32;99795.00;4996505;28;20053;-80
2023/07/17 03:43:38;;;;;;;5.47;2.60;;;;;;;19.34;56.12;99794.16;4996232;28;20049;-81
2023/07/17 03:46:04;;;;;;;6.78;3.05;;;;;;;19.33;56.46;99800.47;4995756;28;20050;-81
2023/07/17 03:48:31;;;;;;;3.53;2.55;;;;;;;19.32;56.21;99788.13;5013413;28;20069;-80
2023/07/17 03:50:58;;;;;;;5.03;2.95;;;;;;;19.32;56.45;99798.78;5012515;28;20057;-81
2023/07/17 03:53:29;;;;;;;5.60;3.10;;;;;;;19.29;56.35;99801.78;5013410;28;20050;-80
2023/07/17 03:55:56;;;;;;;5.63;2.88;;;;;;;19.27;56.32;99806.41;5011322;28;20626;-81
2023/07/17 03:58:22;;;;;;;4.65;2.90;;;;;;;19.24;56.43;99812.00;5012993;28;20497;-81
2023/07/17 04:00:49;;;;;;;5.30;3.20;;;;;;;19.22;56.59;99811.31;5013544;28;20054;-82
2023/07/17 04:03:16;;;;;;;6.72;3.28;;;;;;;19.20;56.98;99814.13;5012008;28;20752;-81
2023/07/17 04:05:44;;;;;;;7.47;2.83;;;;;;;19.17;56.67;99822.41;4995795;28;20061;-80
2023/07/17 04:08:11;;;;;;;7.07;3.05;;;;;;;19.16;56.75;99818.06;4991882;28;20068;-81
2023/07/17 04:10:40;;;;;;;6.82;3.00;;;;;;;19.14;56.89;99820.06;5005081;28;20128;-81
2023/07/17 04:13:06;;;;;;;5.07;3.00;;;;;;;19.12;57.00;99825.53;5012931;28;20050;-80
2023/07/17 04:15:36;;;;;;;3.63;2.83;;;;;;;19.10;57.57;99822.13;5012759;28;20050;-81
2023/07/17 04:18:03;;;;;;;4.85;2.78;;;;;;;19.11;57.04;99821.16;5013082;28;20090;-81
2023/07/17 04:20:30;;;;;;;4.13;2.47;;;;;;;19.12;57.40;99816.66;5011751;28;20056;-81
2023/07/17 04:22:56;;;;;;;5.10;3.00;;;;;;;19.12;57.50;99828.19;4995499;28;20065;-80
2023/07/17 04:25:23;;;;;;;5.65;2.80;;;;;;;19.14;57.69;99822.72;4995051;28;20141;-80
2023/07/17 04:27:50;;;;;;;7.22;2.80;;;;;;;19.16;57.91;99828.75;5012644;28;20128;-81
2023/07/17 04:30:17;;;;;;;5.88;3.03;;;;;;;19.18;57.70;99829.47;4995419;28;20050;-80
2023/07/17 04:32:43;;;;;;;10.20;3.38;;;;;;;19.20;57.76;99823.94;4995110;28;20496;-80
2023/07/17 04:35:10;;;;;;;4.20;2.65;;;;;;;19.21;57.48;99828.31;4994818;28;20467;-80
2023/07/17 04:37:37;;;;;;;4.38;2.90;;;;;;;19.20;57.77;99829.28;5011039;28;20104;-81
2023/07/17 04:40:05;;;;;;;5.28;2.78;;;;;;;19.20;57.46;99839.97;5012528;28;20057;-80
2023/07/17 04:42:31;;;;;;;4.82;2.92;;;;;;;19.18;57.49;99841.94;4995235;28;20133;-81
2023/07/17 04:44:58;;;;;;;11.25;3.47;;;;;;;19.16;57.60;99854.56;5011445;28;20058;-81
2023/07/17 04:47:25;;;;;;;4.53;2.60;;;;;;;19.14;57.85;99854.72;5012151;28;20093;-81
2023/07/17 04:49:55;;;;;;;6.25;3.20;;;;;;;19.11;58.27;99850.50;5012711;28;20062;-81
2023/07/17 04:52:22;;;;;;;7.75;3.30;;;;;;;19.10;57.65;99853.34;4994912;28;20054;-81
2023/07/17 04:54:48;;;;;;;5.25;3.00;;;;;;;19.08;58.11;99849.94;4994935;28;20054;-81
2023/07/17 04:57:15;;;;;;;6.10;3.03;;;;;;;19.08;58.28;99865.94;5011992;28;20133;-80
2023/07/17 04:59:42;;;;;;;6.50;3.30;;;;;;;19.04;58.35;99854.69;5011090;28;20511;-81
2023/07/17 05:02:10;;;;;;;6.13;2.95;;;;;;;19.05;58.32;99852.84;5012116;28;20563;-80
2023/07/17 05:04:37;;;;;;;6.30;3.05;;;;;;;19.06;58.49;99859.94;5012072;28;20054;-81
2023/07/17 05:07:05;;;;;;;4.25;3.05;;;;;;;19.05;58.53;99856.41;4994324;28;20177;-81
2023/07/17 05:09:32;;;;;;;5.78;2.67;;;;;;;19.07;58.74;99857.13;5011723;28;20826;-81
2023/07/17 05:11:59;;;;;;;4.13;2.63;;;;;;;19.07;58.74;99867.78;5012096;28;20061;-81
2023/07/17 05:14:25;;;;;;;6.35;3.20;;;;;;;19.08;58.47;99864.13;5012101;28;20050;-81
2023/07/17 05:16:52;;;;;;;5.90;2.90;;;;;;;19.10;58.70;99859.50;5011814;28;20119;-81
2023/07/17 05:19:19;;;;;;;6.30;2.90;;;;;;;19.11;58.52;99855.84;5010653;28;20484;-81
2023/07/17 05:21:46;;;;;;;6.40;2.97;;;;;;;19.10;58.71;99859.50;5010470;28;20054;-81
2023/07/17 05:24:13;;;;;;;4.78;2.97;;;;;;;19.12;58.56;99854.88;5012067;28;20058;-80
2023/07/17 05:26:40;;;;;;;5.88;3.00;;;;;;;19.12;58.94;99848.69;5011775;28;20058;-81
2023/07/17 05:29:09;;;;;;;8.32;3.22;;;;;;;19.14;58.80;99862.75;4994333;28;20432;-81
2023/07/17 05:31:35;;;;;;;8.07;2.83;;;;;;;19.15;59.01;99861.75;4993494;28;20542;-81
2023/07/17 05:34:03;;;;;;;10.00;3.00;;;;;;;19.16;58.96;99860.75;5011365;28;20096;-82
2023/07/17 05:36:29;;;;;;;5.97;3.25;;;;;;;19.16;59.22;99860.75;4994174;28;20061;-81
2023/07/17 05:38:57;;;;;;;6.97;3.53;;;;;;;19.18;58.82;99864.16;4994241;28;20046;-84
2023/07/17 05:41:24;;;;;;;5.47;2.90;;;;;;;19.19;59.31;99859.63;4994337;28;20057;-84
2023/07/17 05:43:52;;;;;;;5.82;3.15;;;;;;;19.19;59.06;99865.81;4995077;28;20049;-82
2023/07/17 05:46:22;;;;;;;7.90;3.67;;;;;;;19.21;59.11;99877.19;4994493;28;20057;-82
2023/07/17 05:48:49;;;;;;;5.43;3.05;;;;;;;19.23;59.09;99887.72;5011490;28;20508;-82
2023/07/17 05:51:19;;;;;;;6.75;3.13;;;;;;;19.25;59.26;99891.94;5011622;28;20096;-82
2023/07/17 05:53:46;;;;;;;8.32;3.78;;;;;;;19.25;59.11;99881.25;4994475;28;20520;-82
2023/07/17 05:56:17;;;;;;;9.23;3.67;;;;;;;19.29;59.58;99886.31;4994171;28;20133;-82
2023/07/17 05:58:47;;;;;;;8.18;3.38;;;;;;;19.31;59.08;99879.84;4994022;28;20057;-83
2023/07/17 06:01:16;;;;;;;4.65;3.05;;;;;;;19.34;59.32;99892.91;4994279;28;20467;-81
2023/07/17 06:03:44;;;;;;;7.38;3.00;;;;;;;19.39;59.30;99890.66;4993872;28;20072;-82
2023/07/17 06:06:11;;;;;;;7.72;3.10;;;;;;;19.45;59.35;99891.06;5011566;28;20092;-83
2023/07/17 06:08:38;;;;;;;5.25;2.97;;;;;;;19.52;59.45;99886.88;4994127;28;20058;-82
2023/07/17 06:11:05;;;;;;;7.72;3.28;;;;;;;19.57;59.50;99889.09;5011501;28;20061;-82
2023/07/17 06:13:40;;;;;;;6.38;3.13;;;;;;;19.64;59.41;99882.19;4994354;28;20053;-81
2023/07/17 06:16:07;;;;;;;6.15;2.85;;;;;;;19.71;59.09;99893.16;4993809;28;20073;-82
2023/07/17 06:18:33;;;;;;;5.97;3.08;;;;;;;19.77;58.75;99903.25;4994088;28;20136;-82
2023/07/17 06:21:00;;;;;;;6.75;3.30;;;;;;;19.80;58.35;99892.28;4994089;28;20399;-82
2023/07/17 06:23:27;;;;;;;5.32;3.38;;;;;;;19.84;58.09;99888.31;4993732;28;20452;-82
2023/07/17 06:25:54;;;;;;;6.13;3.28;;;;;;;19.88;58.42;99895.06;5010040;28;20137;-83
2023/07/17 06:28:20;;;;;;;6.45;3.78;;;;;;;19.91;57.87;99902.81;5010878;28;20519;-83
2023/07/17 06:30:47;;;;;;;7.07;3.22;;;;;;;19.93;57.81;99897.31;4993660;28;20671;-83
2023/07/17 06:33:14;;;;;;;7.53;3.38;;;;;;;19.94;57.46;99904.34;5011813;28;20427;-82
2023/07/17 06:35:44;;;;;;;7.40;3.47;;;;;;;19.95;57.40;99903.34;4995054;28;20424;-83
2023/07/17 06:38:11;;;;;;;6.95;3.40;;;;;;;19.97;57.28;99908.53;4993918;28;20064;-82
2023/07/17 06:40:39;;;;;;;8.95;3.38;;;;;;;19.97;57.46;99912.06;4994323;28;20073;-82
2023/07/17 06:43:07;;;;;;;5.35;3.10;;;;;;;19.98;57.51;99912.91;4995330;28;20088;-83
2023/07/17 06:45:38;;;;;;;8.63;3.60;;;;;;;19.99;57.59;99922.63;4997672;28;20061;-82
2023/07/17 06:48:12;;;;;;;5.10;3.50;;;;;;;20.02;57.26;99920.50;5014932;28;20050;-82
2023/07/17 06:50:42;;;;;;;5.87;3.50;;;;;;;20.05;57.44;99927.41;5014125;28;20058;-82
2023/07/17 06:53:09;;;;;;;7.53;3.65;;;;;;;20.10;57.02;99927.78;4996909;28;20388;-81
2023/07/17 06:55:36;;;;;;;5.57;3.45;;;;;;;20.15;57.15;99925.53;5013043;28;20054;-83
2023/07/17 06:58:08;;;;;;;7.22;3.95;;;;;;;20.18;56.75;99924.38;4998044;28;20054;-82
2023/07/17 07:00:39;;;;;;;5.28;3.80;;;;;;;20.26;56.82;99926.34;4997731;28;20487;-82
2023/07/17 07:03:06;;;;;;;9.00;3.42;;;;;;;20.31;56.97;99924.06;4996969;28;20052;-83
2023/07/17 07:05:33;;;;;;;5.68;3.47;;;;;;;20.37;56.97;99928.81;5014763;28;20045;-83
2023/07/17 07:08:02;;;;;;;6.60;3.55;;;;;;;20.47;56.47;99927.94;4997004;28;20138;-83
2023/07/17 07:10:29;;;;;;;9.00;3.60;;;;;;;20.54;56.22;99940.56;4996894;28;20046;-83
2023/07/17 07:12:56;;;;;;;8.50;3.85;;;;;;;20.60;56.42;99936.47;4996454;28;20647;-83
2023/07/17 07:15:25;;;;;;;6.75;3.90;;;;;;;20.64;55.71;99940.50;4996643;28;20050;-82
2023/07/17 07:17:52;;;;;;;8.43;3.97;;;;;;;20.70;55.74;99934.56;5014062;28;20423;-83
2023/07/17 07:20:19;;;;;;;9.27;3.83;;;;;;;20.75;55.67;99930.63;4996730;28;20522;-82
2023/07/17 07:22:46;;;;;;;4.95;3.30;;;;;;;20.80;55.45;99931.00;5014201;28;20100;-83
2023/07/17 07:25:15;;;;;;;6.72;4.22;;;;;;;20.83;54.54;99950.25;5014077;28;20050;-83
2023/07/17 07:27:42;;;;;;;13.52;4.20;;;;;;;20.87;54.04;99944.63;4996596;28;20046;-82
2023/07/17 07:30:09;;;;;;;7.43;4.35;;;;;;;20.88;54.04;99951.66;5014111;28;20049;-83
2023/07/17 07:32:39;;;;;;;9.10;4.05;;;;;;;20.87;54.03;99945.50;4996650;28;20058;-83
2023/07/17 07:35:06;;;;;;;6.68;3.72;;;;;;;20.88;53.97;99947.19;4996135;28;20050;-83
2023/07/17 07:37:33;;;;;;;6.10;4.10;;;;;;;20.88;53.94;99946.31;4996351;28;20057;-81
2023/07/17 07:40:06;;;;;;;6.75;3.78;;;;;;;20.90;54.70;99963.09;4996342;28;20050;-80
2023/07/17 07:42:33;;;;;;;;;;;;;;;20.91;54.07;99962.94;5014442;28;20054;-81
2023/07/17 07:45:00;;;;;;;6.32;3.60;;;;;;;20.99;53.94;99955.97;5013471;28;20396;-81
2023/07/17 07:47:30;;;;;;;6.00;3.88;;;;;;;20.96;52.79;99957.97;4996473;28;20057;-79
2023/07/17 07:50:03;;;;;;;8.40;3.67;;;;;;;20.96;53.00;99967.81;4997163;28;20057;-81
2023/07/17 07:52:34;;;;;;;8.65;3.90;;;;;;;20.93;52.92;99971.63;5012013;28;20050;-81
2023/07/17 07:55:04;;;;;;;6.28;3.88;;;;;;;20.92;52.72;99967.28;5012830;28;20060;-81
2023/07/17 07:57:34;;;;;;;7.60;3.63;;;;;;;20.92;52.68;99963.75;4996371;28;20054;-82
2023/07/17 08:00:03;;;;;;;7.70;3.97;;;;;;;20.95;52.97;99972.34;4996454;28;20053;-81
2023/07/17 08:02:31;;;;;;;6.38;3.72;;;;;;;20.95;53.00;99974.16;4996365;28;20129;-81
2023/07/17 08:04:59;;;;;;;6.93;4.05;;;;;;;20.96;52.47;99968.69;4995816;28;20455;-80
2023/07/17 08:07:26;;;;;;;11.00;3.97;;;;;;;21.00;52.81;99971.06;5011815;28;20570;-81
2023/07/17 08:09:54;;;;;;;9.93;4.65;;;;;;;21.03;52.38;99968.06;5013197;28;20056;-81
2023/07/17 08:12:25;;;;;;;7.10;4.25;;;;;;;21.06;52.30;99967.75;5012144;28;20049;-81
2023/07/17 08:14:53;;;;;;;6.85;4.43;;;;;;;21.11;52.18;99978.03;5011567;28;20419;-81
2023/07/17 08:17:26;;;;;;;7.63;4.38;;;;;;;21.14;52.36;99972.34;4996400;28;20145;-81
2023/07/17 08:19:56;;;;;;;7.88;4.13;;;;;;;21.17;52.31;99966.72;5011362;28;20081;-81
2023/07/17 08:22:28;;;;;;;7.95;4.68;;;;;;;21.20;52.01;99974.44;4995399;28;20077;-81
2023/07/17 08:24:56;;;;;;;6.70;4.07;;;;;;;21.25;51.83;99973.97;4995536;28;20071;-80
2023/07/17 08:27:26;;;;;;;5.63;4.13;;;;;;;21.29;50.79;99972.66;4995969;28;20115;-81
2023/07/17 08:29:54;;;;;;;6.93;4.50;;;;;;;21.35;51.35;99983.59;5012323;28;20484;-80
2023/07/17 08:32:22;;;;;;;6.55;4.35;;;;;;;21.44;51.54;99972.97;4996158;28;20100;-81
2023/07/17 08:34:50;;;;;;;8.70;4.60;;;;;;;21.55;51.29;99979.94;4995075;28;20062;-81
2023/07/17 08:37:18;;;;;;;8.40;4.20;;;;;;;21.67;51.24;99989.44;4995472;28;20092;-81
2023/07/17 08:39:47;;;;;;;10.82;4.68;;;;;;;21.80;51.11;99982.88;4995997;28;20512;-80
2023/07/17 08:42:14;;;;;;;5.07;3.88;;;;;;;21.93;49.99;99993.16;4995637;28;20108;-81
2023/07/17 08:44:42;;;;;;;6.85;4.20;;;;;;;22.03;50.43;99988.56;4995739;28;20053;-80
2023/07/17 08:47:11;;;;;;;7.78;3.80;;;;;;;22.13;49.57;99989.28;4995022;28;20058;-81
2023/07/17 08:49:39;;;;;;;5.70;3.72;;;;;;;22.21;49.62;99985.81;5011804;28;20050;-81
2023/07/17 08:54:42;;;;;;;7.40;3.95;;;;;;;22.38;48.86;99991.28;5031211;28;20064;-79
2023/07/17 08:57:35;;;;;;;7.05;3.83;;;;;;;22.40;48.84;99991.97;5046159;28;20087;-78
2023/07/17 09:00:46;;;;;;;;;;;;;;;;;;;;;
2023/07/17 09:03:27;;;;;;;6.60;3.70;;;;;;;22.64;48.69;99987.75;5032895;28;20055;-79
2023/07/17 09:06:30;;;;;;;5.50;3.90;;;;;;;22.71;47.98;99986.09;4950555;28;20528;-78
2023/07/17 09:12:22;;;;;;;;;;;;;;;;;;;;;
2023/07/17 09:14:57;;;;;;;6.78;3.60;;;;;;;23.04;47.12;99990.75;4951027;29;20051;-79
2023/07/17 09:18:26;;;;;;;;;;;;;;;;;;;;;
2023/07/17 09:21:44;;;;;;;;;;;;;;;;;;;;;
2023/07/17 09:24:48;;;;;;;;;;;;;;;;;;;;;
2023/07/17 09:27:34;;;;;;;;;;;;;;;;;;;;;
2023/07/17 09:31:07;;;;;;;6.75;3.72;;;;;;;23.46;46.68;100002.44;4850675;29;20093;-79
2023/07/17 09:33:49;;;;;;;6.97;3.67;;;;;;;23.54;45.81;100002.44;4853704;29;20059;-79
2023/07/17 09:37:04;;;;;;;;;;;;;;;23.54;46.95;100010.50;4932179;29;20216;-79
2023/07/17 09:39:42;;;;;;;4.68;3.30;;;;;;;23.51;46.74;100007.31;5031983;28;20363;-79
2023/07/17 09:42:30;;;;;;;7.45;4.47;;;;;;;23.48;46.51;100013.00;4946766;29;20403;-79
2023/07/17 09:45:03;;;;;;;8.25;4.10;;;;;;;23.45;46.47;100003.44;4922734;29;20051;-79
2023/07/17 09:47:41;;;;;;;6.85;3.70;;;;;;;23.45;46.41;100005.28;5025711;28;20057;-79
2023/07/17 09:50:23;;;;;;;8.35;3.92;;;;;;;23.45;46.80;100008.81;5015791;28;20042;-79
2023/07/17 09:53:24;;;;;;;7.03;4.00;;;;;;;23.48;46.94;100016.56;4998251;28;20077;-79
2023/07/17 09:56:11;;;;;;;8.95;4.15;;;;;;;23.53;46.59;100011.53;4995740;28;20070;-79
2023/07/17 09:58:53;;;;;;;;;;;;;;;;;;;;;
2023/07/17 10:01:42;;;;;;;4.35;3.35;;;;;;;23.69;45.88;100010.69;5016855;28;20389;-79
2023/07/17 10:04:36;;;;;;;8.27;3.70;;;;;;;23.79;45.77;100010.53;5015606;28;20057;-79
2023/07/17 10:07:34;;;;;;;6.90;3.65;;;;;;;23.80;45.30;100009.50;5016233;28;20060;-79
2023/07/17 10:10:15;;;;;;;7.20;3.83;;;;;;;23.86;46.32;100015.22;5016368;28;20120;-78
2023/07/17 10:12:43;;;;;;;6.00;3.20;;;;;;;23.89;45.74;100009.50;5000305;28;20050;-77
2023/07/17 10:15:18;;;;;;;6.22;4.00;;;;;;;23.94;45.30;100016.06;4994384;28;20128;-79
2023/07/17 10:18:14;;;;;;;6.82;3.97;;;;;;;23.99;45.18;100014.72;5014286;28;20108;-79
2023/07/17 10:20:54;;;;;;;6.63;3.42;;;;;;;24.05;45.00;100009.50;4998146;28;20592;-79
2023/07/17 10:23:52;;;;;;;6.95;3.90;;;;;;;24.16;45.43;100020.94;5007688;28;20406;-79
2023/07/17 10:26:36;;;;;;;8.48;4.13;;;;;;;24.18;44.67;100024.31;5018881;28;20049;-79
2023/07/17 10:29:11;;;;;;;6.45;3.88;;;;;;;24.18;44.84;100025.13;5018091;28;20054;-79
2023/07/17 10:31:48;;;;;;;8.20;3.90;;;;;;;24.16;45.22;100020.94;5035548;28;20116;-78
2023/07/17 10:34:19;;;;;;;6.03;3.80;;;;;;;24.22;46.09;100016.72;5035344;28;20045;-78
2023/07/17 10:36:46;;;;;;;5.07;3.33;;;;;;;24.29;45.51;100013.16;5035095;28;20063;-78
2023/07/17 10:39:19;;;;;;;7.55;4.05;;;;;;;24.34;44.58;100028.81;5034553;28;20069;-79
2023/07/17 10:41:49;;;;;;;6.75;4.00;;;;;;;24.38;44.11;100022.06;5031692;28;20080;-79
2023/07/17 10:44:20;;;;;;;5.90;3.88;;;;;;;24.37;44.11;100025.75;5015186;28;20080;-79
2023/07/17 10:46:46;;;;;;;8.75;3.83;;;;;;;24.36;43.95;100034.84;5033221;28;20411;-79
2023/07/17 10:49:15;;;;;;;4.88;3.42;;;;;;;24.31;44.06;100034.53;5033044;28;20099;-79
2023/07/17 10:51:44;;;;;;;7.68;3.63;;;;;;;24.25;43.71;100032.53;5033692;28;20053;-79
2023/07/17 10:54:11;;;;;;;7.30;3.92;;;;;;;24.20;43.93;100033.88;5032597;28;20100;-79
2023/07/17 10:56:38;;;;;;;5.32;4.00;;;;;;;24.24;45.11;100031.69;5033141;28;20148;-79
2023/07/17 10:59:04;;;;;;;7.65;3.85;;;;;;;24.46;46.22;100034.66;5033295;28;20049;-79
2023/07/17 11:01:31;;;;;;;6.97;3.90;;;;;;;24.84;46.14;100028.66;5032708;28;20080;-78
2023/07/17 11:03:57;;;;;;;5.53;3.28;;;;;;;25.31;45.89;100024.19;5022742;28;20050;-78
2023/07/17 11:06:26;;;;;;;6.63;3.25;;;;;;;25.87;44.49;100038.50;5026300;28;20053;-79
2023/07/17 11:08:54;;;;;;;6.70;3.25;;;;;;;26.45;44.41;100034.44;5032608;28;20514;-79
2023/07/17 11:11:21;;;;;;;4.90;3.15;;;;;;;26.95;42.56;100053.66;5015546;28;20081;-79
2023/07/17 11:13:49;;;;;;;5.90;3.25;;;;;;;27.35;40.88;100039.75;5027282;28;20049;-79
2023/07/17 11:16:20;;;;;;;3.63;2.42;;;;;;;27.66;39.40;100035.91;5014515;28;20527;-79
2023/07/17 11:18:52;;;;;;;5.05;2.90;;;;;;;27.92;39.10;100028.25;5015412;28;20415;-78
2023/07/17 11:21:21;;;;;;;5.50;3.30;;;;;;;28.14;39.02;100036.31;5032671;28;20057;-78
2023/07/17 11:23:54;;;;;;;4.57;2.88;;;;;;;28.21;38.73;100010.97;5032188;28;20501;-79
2023/07/17 11:26:26;;;;;;;6.28;2.85;;;;;;;28.27;37.20;100014.78;5014823;28;20053;-79
2023/07/17 11:28:55;;;;;;;4.30;2.00;;;;;;;28.41;38.56;100017.59;5031493;28;20466;-78
2023/07/17 11:31:35;;;;;;;4.88;2.20;;;;;;;28.61;37.35;100032.06;5031773;28;20045;-79
2023/07/17 11:34:10;;;;;;;2.58;1.80;;;;;;;28.94;36.64;100010.78;5031978;28;20102;-79
2023/07/17 11:36:46;;;;;;;3.78;2.33;;;;;;;29.28;36.69;100014.41;5032214;28;20605;-79
2023/07/17 11:39:20;;;;;;;5.18;2.30;;;;;;;29.65;37.21;100022.22;5032779;28;20103;-79
2023/07/17 11:41:49;;;;;;;2.50;1.90;;;;;;;30.00;35.93;100013.88;5032365;28;20550;-79
2023/07/17 11:44:27;;;;;;;2.95;1.88;;;;;;;30.34;35.08;100011.13;5031463;28;20053;-79
2023/07/17 11:46:56;;;;;;;5.10;2.10;;;;;;;30.68;34.52;100003.69;5012572;28;20050;-79
2023/07/17 11:49:26;;;;;;;2.00;1.55;;;;;;;30.95;33.17;100009.03;5012595;28;20057;-79
2023/07/17 11:51:54;;;;;;;3.67;2.00;;;;;;;31.14;33.17;100025.47;5013090;28;20053;-79
2023/07/17 11:54:20;;;;;;;3.33;1.70;;;;;;;31.14;32.49;100020.03;5012462;28;20076;-79
2023/07/17 11:56:47;;;;;;;3.78;2.05;;;;;;;31.05;32.78;100026.75;5030830;28;20053;-79
2023/07/17 11:59:24;;;;;;;3.45;1.58;;;;;;;30.90;32.89;100003.44;5032344;28;20424;-79
2023/07/17 12:01:50;;;;;;;2.75;1.77;;;;;;;30.86;33.05;100015.78;5032102;28;20140;-79